sensor_id;sensor_type;location;lat;lon;timestamp;P1;durP1;ratioP1;P2;durP2;ratioP2
40449;SDS011;41787;53.570;10.032;2023-04-03T00:01:43;11.48;;;2.53;;
40449;SDS011;41787;53.570;10.032;2023-04-03T00:04:09;9.23;;;2.47;;
40449;SDS011;41787;53.570;10.032;2023-04-03T00:06:35;10.82;;;2.40;;
40449;SDS011;41787;53.570;10.032;2023-04-03T00:09:01;6.00;;;2.33;;
40449;SDS011;41787;53.570;10.032;2023-04-03T00:11:28;12.52;;;2.33;;
40449;SDS011;41787;53.570;10.032;2023-04-03T00:13:56;7.53;;;2.28;;
40449;SDS011;41787;53.570;10.032;2023-04-03T00:16:25;5.88;;;2.15;;
40449;SDS011;41787;53.570;10.032;2023-04-03T00:18:56;8.60;;;2.33;;
40449;SDS011;41787;53.570;10.032;2023-04-03T00:21:22;11.23;;;2.30;;
40449;SDS011;41787;53.570;10.032;2023-04-03T00:23:48;8.48;;;2.33;;
40449;SDS011;41787;53.570;10.032;2023-04-03T00:26:17;8.98;;;2.72;;
40449;SDS011;41787;53.570;10.032;2023-04-03T00:28:43;11.65;;;2.58;;
40449;SDS011;41787;53.570;10.032;2023-04-03T00:31:09;8.40;;;2.45;;
40449;SDS011;41787;53.570;10.032;2023-04-03T00:33:36;11.70;;;2.20;;
40449;SDS011;41787;53.570;10.032;2023-04-03T00:36:06;8.43;;;2.65;;
40449;SDS011;41787;53.570;10.032;2023-04-03T00:38:32;5.60;;;1.42;;
40449;SDS011;41787;53.570;10.032;2023-04-03T00:40:58;3.22;;;1.73;;
40449;SDS011;41787;53.570;10.032;2023-04-03T00:43:24;9.07;;;2.58;;
40449;SDS011;41787;53.570;10.032;2023-04-03T00:45:52;8.10;;;2.47;;
40449;SDS011;41787;53.570;10.032;2023-04-03T00:48:23;6.28;;;2.20;;
40449;SDS011;41787;53.570;10.032;2023-04-03T00:50:50;5.18;;;2.28;;
40449;SDS011;41787;53.570;10.032;2023-04-03T00:53:19;6.60;;;3.20;;
40449;SDS011;41787;53.570;10.032;2023-04-03T00:55:47;9.38;;;2.20;;
40449;SDS011;41787;53.570;10.032;2023-04-03T00:58:14;6.15;;;2.45;;
40449;SDS011;41787;53.570;10.032;2023-04-03T01:00:42;10.23;;;2.60;;
40449;SDS011;41787;53.570;10.032;2023-04-03T01:03:09;9.02;;;2.42;;
40449;SDS011;41787;53.570;10.032;2023-04-03T01:05:35;7.13;;;2.30;;
40449;SDS011;41787;53.570;10.032;2023-04-03T01:08:01;9.27;;;2.55;;
40449;SDS011;41787;53.570;10.032;2023-04-03T01:10:30;11.82;;;2.72;;
40449;SDS011;41787;53.570;10.032;2023-04-03T01:12:56;8.70;;;2.85;;
40449;SDS011;41787;53.570;10.032;2023-04-03T01:15:23;9.00;;;2.80;;
40449;SDS011;41787;53.570;10.032;2023-04-03T01:17:50;10.45;;;2.20;;
40449;SDS011;41787;53.570;10.032;2023-04-03T01:25:30;7.07;;;2.30;;
40449;SDS011;41787;53.570;10.032;2023-04-03T01:27:56;7.22;;;2.55;;
40449;SDS011;41787;53.570;10.032;2023-04-03T01:30:24;6.43;;;2.80;;
40449;SDS011;41787;53.570;10.032;2023-04-03T01:32:51;6.43;;;1.90;;
40449;SDS011;41787;53.570;10.032;2023-04-03T01:35:17;13.35;;;2.90;;
40449;SDS011;41787;53.570;10.032;2023-04-03T01:37:44;10.25;;;2.63;;
40449;SDS011;41787;53.570;10.032;2023-04-03T01:40:10;7.00;;;2.78;;
40449;SDS011;41787;53.570;10.032;2023-04-03T01:42:36;11.00;;;2.97;;
40449;SDS011;41787;53.570;10.032;2023-04-03T01:45:05;5.72;;;2.67;;
40449;SDS011;41787;53.570;10.032;2023-04-03T01:47:31;3.15;;;1.63;;
40449;SDS011;41787;53.570;10.032;2023-04-03T01:49:57;9.77;;;2.65;;
40449;SDS011;41787;53.570;10.032;2023-04-03T01:52:25;7.82;;;2.60;;
40449;SDS011;41787;53.570;10.032;2023-04-03T01:54:51;9.30;;;2.70;;
40449;SDS011;41787;53.570;10.032;2023-04-03T01:57:17;8.75;;;2.80;;
40449;SDS011;41787;53.570;10.032;2023-04-03T01:59:43;13.73;;;2.45;;
40449;SDS011;41787;53.570;10.032;2023-04-03T02:02:09;13.00;;;2.58;;
40449;SDS011;41787;53.570;10.032;2023-04-03T02:04:37;6.38;;;1.88;;
40449;SDS011;41787;53.570;10.032;2023-04-03T02:07:19;13.90;;;2.05;;
40449;SDS011;41787;53.570;10.032;2023-04-03T02:09:47;8.95;;;2.20;;
40449;SDS011;41787;53.570;10.032;2023-04-03T02:12:13;13.85;;;2.60;;
40449;SDS011;41787;53.570;10.032;2023-04-03T02:14:39;14.88;;;2.35;;
40449;SDS011;41787;53.570;10.032;2023-04-03T02:17:05;8.65;;;2.60;;
40449;SDS011;41787;53.570;10.032;2023-04-03T02:19:33;8.15;;;1.95;;
40449;SDS011;41787;53.570;10.032;2023-04-03T02:22:00;6.45;;;2.67;;
40449;SDS011;41787;53.570;10.032;2023-04-03T02:24:26;3.97;;;2.05;;
40449;SDS011;41787;53.570;10.032;2023-04-03T02:26:52;14.05;;;2.85;;
40449;SDS011;41787;53.570;10.032;2023-04-03T02:29:18;7.10;;;2.38;;
40449;SDS011;41787;53.570;10.032;2023-04-03T02:31:45;7.80;;;2.55;;
40449;SDS011;41787;53.570;10.032;2023-04-03T02:34:11;7.93;;;2.20;;
40449;SDS011;41787;53.570;10.032;2023-04-03T02:36:37;8.15;;;2.50;;
40449;SDS011;41787;53.570;10.032;2023-04-03T02:39:03;6.53;;;2.33;;
40449;SDS011;41787;53.570;10.032;2023-04-03T02:41:29;7.32;;;2.42;;
40449;SDS011;41787;53.570;10.032;2023-04-03T02:44:00;5.45;;;2.60;;
40449;SDS011;41787;53.570;10.032;2023-04-03T02:46:26;6.63;;;2.30;;
40449;SDS011;41787;53.570;10.032;2023-04-03T02:48:52;10.20;;;2.38;;
40449;SDS011;41787;53.570;10.032;2023-04-03T02:51:18;5.40;;;2.17;;
40449;SDS011;41787;53.570;10.032;2023-04-03T02:53:44;6.55;;;1.95;;
40449;SDS011;41787;53.570;10.032;2023-04-03T02:56:10;10.77;;;2.47;;
40449;SDS011;41787;53.570;10.032;2023-04-03T02:58:36;9.13;;;2.47;;
40449;SDS011;41787;53.570;10.032;2023-04-03T03:01:02;5.72;;;2.60;;
40449;SDS011;41787;53.570;10.032;2023-04-03T03:03:28;10.15;;;3.40;;
40449;SDS011;41787;53.570;10.032;2023-04-03T03:06:07;6.13;;;2.45;;
40449;SDS011;41787;53.570;10.032;2023-04-03T03:08:33;9.52;;;2.58;;
40449;SDS011;41787;53.570;10.032;2023-04-03T03:10:59;12.32;;;3.17;;
40449;SDS011;41787;53.570;10.032;2023-04-03T03:13:25;8.95;;;2.63;;
40449;SDS011;41787;53.570;10.032;2023-04-03T03:15:52;8.77;;;2.95;;
40449;SDS011;41787;53.570;10.032;2023-04-03T03:18:18;7.78;;;2.80;;
40449;SDS011;41787;53.570;10.032;2023-04-03T03:20:44;8.48;;;2.50;;
40449;SDS011;41787;53.570;10.032;2023-04-03T03:23:10;6.90;;;2.45;;
40449;SDS011;41787;53.570;10.032;2023-04-03T03:25:39;9.23;;;2.67;;
40449;SDS011;41787;53.570;10.032;2023-04-03T03:28:05;13.35;;;2.97;;
40449;SDS011;41787;53.570;10.032;2023-04-03T03:30:32;6.00;;;2.20;;
40449;SDS011;41787;53.570;10.032;2023-04-03T03:32:58;7.25;;;2.42;;
40449;SDS011;41787;53.570;10.032;2023-04-03T03:35:24;11.02;;;2.95;;
40449;SDS011;41787;53.570;10.032;2023-04-03T03:37:50;13.13;;;2.40;;
40449;SDS011;41787;53.570;10.032;2023-04-03T03:40:16;4.88;;;2.10;;
40449;SDS011;41787;53.570;10.032;2023-04-03T03:42:42;6.38;;;2.40;;
40449;SDS011;41787;53.570;10.032;2023-04-03T03:45:08;6.53;;;1.58;;
40449;SDS011;41787;53.570;10.032;2023-04-03T03:47:34;7.35;;;2.55;;
40449;SDS011;41787;53.570;10.032;2023-04-03T03:50:00;6.03;;;2.25;;
40449;SDS011;41787;53.570;10.032;2023-04-03T03:52:26;3.78;;;1.95;;
40449;SDS011;41787;53.570;10.032;2023-04-03T03:54:53;9.45;;;2.65;;
40449;SDS011;41787;53.570;10.032;2023-04-03T03:57:19;8.48;;;2.25;;
40449;SDS011;41787;53.570;10.032;2023-04-03T03:59:45;7.70;;;3.13;;
40449;SDS011;41787;53.570;10.032;2023-04-03T04:02:12;5.97;;;2.20;;
40449;SDS011;41787;53.570;10.032;2023-04-03T04:04:38;10.68;;;2.60;;
40449;SDS011;41787;53.570;10.032;2023-04-03T04:07:04;11.02;;;3.15;;
40449;SDS011;41787;53.570;10.032;2023-04-03T04:09:30;9.05;;;2.42;;
40449;SDS011;41787;53.570;10.032;2023-04-03T04:11:56;5.40;;;2.17;;
40449;SDS011;41787;53.570;10.032;2023-04-03T04:14:22;10.20;;;2.63;;
40449;SDS011;41787;53.570;10.032;2023-04-03T04:16:48;9.63;;;2.60;;
40449;SDS011;41787;53.570;10.032;2023-04-03T04:19:14;10.48;;;2.30;;
40449;SDS011;41787;53.570;10.032;2023-04-03T04:21:40;4.97;;;2.20;;
40449;SDS011;41787;53.570;10.032;2023-04-03T04:24:08;3.15;;;1.75;;
40449;SDS011;41787;53.570;10.032;2023-04-03T04:26:35;9.93;;;2.50;;
40449;SDS011;41787;53.570;10.032;2023-04-03T04:29:01;6.03;;;2.30;;
40449;SDS011;41787;53.570;10.032;2023-04-03T04:31:27;9.82;;;2.30;;
40449;SDS011;41787;53.570;10.032;2023-04-03T04:33:53;3.70;;;2.10;;
40449;SDS011;41787;53.570;10.032;2023-04-03T04:36:19;5.45;;;2.20;;
40449;SDS011;41787;53.570;10.032;2023-04-03T04:38:45;10.18;;;1.92;;
40449;SDS011;41787;53.570;10.032;2023-04-03T04:41:11;5.13;;;1.40;;
40449;SDS011;41787;53.570;10.032;2023-04-03T04:43:37;11.45;;;2.35;;
40449;SDS011;41787;53.570;10.032;2023-04-03T04:46:07;4.40;;;1.92;;
40449;SDS011;41787;53.570;10.032;2023-04-03T04:48:35;7.38;;;2.25;;
40449;SDS011;41787;53.570;10.032;2023-04-03T04:51:01;7.75;;;2.22;;
40449;SDS011;41787;53.570;10.032;2023-04-03T04:53:27;7.22;;;2.72;;
40449;SDS011;41787;53.570;10.032;2023-04-03T04:55:53;5.55;;;1.98;;
40449;SDS011;41787;53.570;10.032;2023-04-03T04:58:19;6.50;;;2.10;;
40449;SDS011;41787;53.570;10.032;2023-04-03T05:00:45;6.80;;;1.63;;
40449;SDS011;41787;53.570;10.032;2023-04-03T05:03:11;7.95;;;2.17;;
40449;SDS011;41787;53.570;10.032;2023-04-03T05:05:37;9.07;;;2.60;;
40449;SDS011;41787;53.570;10.032;2023-04-03T05:08:03;6.55;;;1.88;;
40449;SDS011;41787;53.570;10.032;2023-04-03T05:10:30;8.35;;;2.63;;
40449;SDS011;41787;53.570;10.032;2023-04-03T05:12:56;5.72;;;2.30;;
40449;SDS011;41787;53.570;10.032;2023-04-03T05:15:22;11.30;;;2.65;;
40449;SDS011;41787;53.570;10.032;2023-04-03T05:17:48;6.72;;;2.00;;
40449;SDS011;41787;53.570;10.032;2023-04-03T05:20:16;11.00;;;2.40;;
40449;SDS011;41787;53.570;10.032;2023-04-03T05:22:42;4.00;;;1.98;;
40449;SDS011;41787;53.570;10.032;2023-04-03T05:25:08;5.65;;;2.20;;
40449;SDS011;41787;53.570;10.032;2023-04-03T05:27:34;8.15;;;3.00;;
40449;SDS011;41787;53.570;10.032;2023-04-03T05:30:00;7.82;;;3.33;;
40449;SDS011;41787;53.570;10.032;2023-04-03T05:32:26;7.75;;;2.33;;
40449;SDS011;41787;53.570;10.032;2023-04-03T05:34:52;4.38;;;2.17;;
40449;SDS011;41787;53.570;10.032;2023-04-03T05:37:18;5.00;;;1.85;;
40449;SDS011;41787;53.570;10.032;2023-04-03T05:39:44;5.50;;;1.50;;
40449;SDS011;41787;53.570;10.032;2023-04-03T05:42:10;6.10;;;2.17;;
40449;SDS011;41787;53.570;10.032;2023-04-03T05:44:37;6.82;;;2.45;;
40449;SDS011;41787;53.570;10.032;2023-04-03T05:47:03;7.15;;;2.83;;
40449;SDS011;41787;53.570;10.032;2023-04-03T05:49:31;9.35;;;2.40;;
40449;SDS011;41787;53.570;10.032;2023-04-03T05:51:57;6.88;;;2.38;;
40449;SDS011;41787;53.570;10.032;2023-04-03T05:54:26;11.75;;;3.50;;
40449;SDS011;41787;53.570;10.032;2023-04-03T05:56:52;16.00;;;2.95;;
40449;SDS011;41787;53.570;10.032;2023-04-03T06:02:18;5.45;;;2.95;;
40449;SDS011;41787;53.570;10.032;2023-04-03T06:04:44;7.15;;;2.67;;
40449;SDS011;41787;53.570;10.032;2023-04-03T06:07:11;10.55;;;2.85;;
40449;SDS011;41787;53.570;10.032;2023-04-03T06:09:37;13.55;;;3.15;;
40449;SDS011;41787;53.570;10.032;2023-04-03T06:12:03;8.32;;;3.00;;
40449;SDS011;41787;53.570;10.032;2023-04-03T06:14:29;9.82;;;2.45;;
40449;SDS011;41787;53.570;10.032;2023-04-03T06:16:55;4.68;;;1.95;;
40449;SDS011;41787;53.570;10.032;2023-04-03T06:19:22;7.43;;;2.55;;
40449;SDS011;41787;53.570;10.032;2023-04-03T06:21:48;14.77;;;3.00;;
40449;SDS011;41787;53.570;10.032;2023-04-03T06:24:15;9.52;;;2.25;;
40449;SDS011;41787;53.570;10.032;2023-04-03T06:26:41;6.15;;;2.35;;
40449;SDS011;41787;53.570;10.032;2023-04-03T06:29:07;4.45;;;2.33;;
40449;SDS011;41787;53.570;10.032;2023-04-03T06:31:34;5.57;;;2.17;;
40449;SDS011;41787;53.570;10.032;2023-04-03T06:34:07;7.75;;;2.97;;
40449;SDS011;41787;53.570;10.032;2023-04-03T06:36:33;8.70;;;2.42;;
40449;SDS011;41787;53.570;10.032;2023-04-03T06:38:59;6.50;;;2.13;;
40449;SDS011;41787;53.570;10.032;2023-04-03T06:41:26;5.90;;;1.75;;
40449;SDS011;41787;53.570;10.032;2023-04-03T06:43:52;7.30;;;1.85;;
40449;SDS011;41787;53.570;10.032;2023-04-03T06:46:20;5.82;;;1.70;;
40449;SDS011;41787;53.570;10.032;2023-04-03T06:48:46;6.35;;;2.13;;
40449;SDS011;41787;53.570;10.032;2023-04-03T06:51:25;7.97;;;2.30;;
40449;SDS011;41787;53.570;10.032;2023-04-03T06:53:59;9.63;;;2.15;;
40449;SDS011;41787;53.570;10.032;2023-04-03T06:56:26;6.63;;;1.80;;
40449;SDS011;41787;53.570;10.032;2023-04-03T06:58:53;5.22;;;1.60;;
40449;SDS011;41787;53.570;10.032;2023-04-03T07:01:19;11.63;;;2.47;;
40449;SDS011;41787;53.570;10.032;2023-04-03T07:03:46;5.20;;;1.65;;
40449;SDS011;41787;53.570;10.032;2023-04-03T07:06:13;3.75;;;1.02;;
40449;SDS011;41787;53.570;10.032;2023-04-03T07:08:41;5.20;;;1.77;;
40449;SDS011;41787;53.570;10.032;2023-04-03T07:11:07;5.65;;;1.90;;
40449;SDS011;41787;53.570;10.032;2023-04-03T07:13:34;6.25;;;2.30;;
40449;SDS011;41787;53.570;10.032;2023-04-03T07:16:00;6.60;;;1.58;;
40449;SDS011;41787;53.570;10.032;2023-04-03T07:18:27;4.60;;;1.50;;
40449;SDS011;41787;53.570;10.032;2023-04-03T07:20:53;3.80;;;0.90;;
40449;SDS011;41787;53.570;10.032;2023-04-03T07:23:18;4.35;;;1.60;;
40449;SDS011;41787;53.570;10.032;2023-04-03T07:25:45;4.15;;;1.30;;
40449;SDS011;41787;53.570;10.032;2023-04-03T07:28:12;7.07;;;1.20;;
40449;SDS011;41787;53.570;10.032;2023-04-03T07:30:42;2.03;;;1.08;;
40449;SDS011;41787;53.570;10.032;2023-04-03T07:33:08;2.53;;;1.10;;
40449;SDS011;41787;53.570;10.032;2023-04-03T07:35:34;10.85;;;2.72;;
40449;SDS011;41787;53.570;10.032;2023-04-03T07:38:00;4.78;;;1.50;;
40449;SDS011;41787;53.570;10.032;2023-04-03T07:40:26;1.77;;;1.13;;
40449;SDS011;41787;53.570;10.032;2023-04-03T07:42:52;5.43;;;1.08;;
40449;SDS011;41787;53.570;10.032;2023-04-03T07:45:18;5.45;;;1.65;;
40449;SDS011;41787;53.570;10.032;2023-04-03T07:47:44;2.85;;;0.80;;
40449;SDS011;41787;53.570;10.032;2023-04-03T07:50:10;4.85;;;1.40;;
40449;SDS011;41787;53.570;10.032;2023-04-03T07:52:36;5.90;;;1.08;;
40449;SDS011;41787;53.570;10.032;2023-04-03T07:55:02;2.88;;;1.10;;
40449;SDS011;41787;53.570;10.032;2023-04-03T07:57:28;6.03;;;1.58;;
40449;SDS011;41787;53.570;10.032;2023-04-03T07:59:54;3.50;;;1.20;;
40449;SDS011;41787;53.570;10.032;2023-04-03T08:02:20;4.65;;;1.48;;
40449;SDS011;41787;53.570;10.032;2023-04-03T08:04:46;3.00;;;0.90;;
40449;SDS011;41787;53.570;10.032;2023-04-03T08:07:12;7.13;;;1.50;;
40449;SDS011;41787;53.570;10.032;2023-04-03T08:09:38;3.22;;;1.30;;
40449;SDS011;41787;53.570;10.032;2023-04-03T08:12:04;3.42;;;1.00;;
40449;SDS011;41787;53.570;10.032;2023-04-03T08:14:31;2.40;;;1.15;;
40449;SDS011;41787;53.570;10.032;2023-04-03T08:16:59;3.72;;;1.15;;
40449;SDS011;41787;53.570;10.032;2023-04-03T08:19:25;2.72;;;1.20;;
40449;SDS011;41787;53.570;10.032;2023-04-03T08:21:52;2.97;;;0.70;;
40449;SDS011;41787;53.570;10.032;2023-04-03T08:24:18;1.17;;;0.80;;
40449;SDS011;41787;53.570;10.032;2023-04-03T08:26:44;8.10;;;1.58;;
40449;SDS011;41787;53.570;10.032;2023-04-03T08:29:10;8.25;;;1.20;;
40449;SDS011;41787;53.570;10.032;2023-04-03T08:31:36;3.22;;;1.10;;
40449;SDS011;41787;53.570;10.032;2023-04-03T08:34:02;6.00;;;1.05;;
40449;SDS011;41787;53.570;10.032;2023-04-03T08:36:29;2.55;;;1.02;;
40449;SDS011;41787;53.570;10.032;2023-04-03T08:38:55;1.23;;;0.77;;
40449;SDS011;41787;53.570;10.032;2023-04-03T08:43:56;3.10;;;1.02;;
40449;SDS011;41787;53.570;10.032;2023-04-03T08:46:25;3.92;;;1.23;;
40449;SDS011;41787;53.570;10.032;2023-04-03T08:48:54;0.77;;;0.55;;
40449;SDS011;41787;53.570;10.032;2023-04-03T08:51:20;0.85;;;0.75;;
40449;SDS011;41787;53.570;10.032;2023-04-03T08:54:06;3.63;;;1.10;;
40449;SDS011;41787;53.570;10.032;2023-04-03T08:56:36;1.98;;;0.47;;
40449;SDS011;41787;53.570;10.032;2023-04-03T08:59:05;3.65;;;0.77;;
40449;SDS011;41787;53.570;10.032;2023-04-03T09:01:36;2.58;;;0.85;;
40449;SDS011;41787;53.570;10.032;2023-04-03T09:04:03;5.05;;;1.10;;
40449;SDS011;41787;53.570;10.032;2023-04-03T09:06:34;2.40;;;1.17;;
40449;SDS011;41787;53.570;10.032;2023-04-03T09:09:14;2.78;;;0.77;;
40449;SDS011;41787;53.570;10.032;2023-04-03T09:11:44;1.98;;;0.98;;
40449;SDS011;41787;53.570;10.032;2023-04-03T09:16:49;5.07;;;1.38;;
40449;SDS011;41787;53.570;10.032;2023-04-03T09:21:45;4.13;;;1.03;;
40449;SDS011;41787;53.570;10.032;2023-04-03T09:24:17;2.42;;;1.33;;
40449;SDS011;41787;53.570;10.032;2023-04-03T09:26:45;3.13;;;0.93;;
40449;SDS011;41787;53.570;10.032;2023-04-03T09:29:18;7.35;;;1.35;;
40449;SDS011;41787;53.570;10.032;2023-04-03T09:31:46;2.45;;;1.00;;
40449;SDS011;41787;53.570;10.032;2023-04-03T09:34:17;4.03;;;0.70;;
40449;SDS011;41787;53.570;10.032;2023-04-03T09:39:10;2.40;;;0.55;;
40449;SDS011;41787;53.570;10.032;2023-04-03T09:41:36;2.47;;;0.73;;
40449;SDS011;41787;53.570;10.032;2023-04-03T09:44:02;0.47;;;0.45;;
40449;SDS011;41787;53.570;10.032;2023-04-03T09:46:30;3.53;;;0.65;;
40449;SDS011;41787;53.570;10.032;2023-04-03T09:48:58;1.50;;;0.80;;
40449;SDS011;41787;53.570;10.032;2023-04-03T09:51:26;3.17;;;1.00;;
40449;SDS011;41787;53.570;10.032;2023-04-03T09:53:52;2.38;;;1.15;;
40449;SDS011;41787;53.570;10.032;2023-04-03T09:56:19;2.85;;;0.85;;
40449;SDS011;41787;53.570;10.032;2023-04-03T09:58:50;1.67;;;0.95;;
40449;SDS011;41787;53.570;10.032;2023-04-03T10:01:23;3.50;;;0.85;;
40449;SDS011;41787;53.570;10.032;2023-04-03T10:04:02;2.28;;;0.80;;
40449;SDS011;41787;53.570;10.032;2023-04-03T10:06:32;0.30;;;0.30;;
40449;SDS011;41787;53.570;10.032;2023-04-03T10:09:01;1.60;;;0.80;;
40449;SDS011;41787;53.570;10.032;2023-04-03T10:11:29;2.17;;;0.93;;
40449;SDS011;41787;53.570;10.032;2023-04-03T10:13:56;2.63;;;1.02;;
40449;SDS011;41787;53.570;10.032;2023-04-03T10:19:53;3.15;;;0.75;;
40449;SDS011;41787;53.570;10.032;2023-04-03T10:22:01;2.03;;;0.70;;
40449;SDS011;41787;53.570;10.032;2023-04-03T10:27:15;2.95;;;0.77;;
40449;SDS011;41787;53.570;10.032;2023-04-03T10:29:45;1.58;;;0.88;;
40449;SDS011;41787;53.570;10.032;2023-04-03T10:34:43;2.83;;;0.75;;
40449;SDS011;41787;53.570;10.032;2023-04-03T10:37:13;0.40;;;0.40;;
40449;SDS011;41787;53.570;10.032;2023-04-03T11:27:21;2.28;;;0.77;;
40449;SDS011;41787;53.570;10.032;2023-04-03T11:36:25;3.28;;;1.20;;
40449;SDS011;41787;53.570;10.032;2023-04-03T11:41:45;2.47;;;0.77;;
40449;SDS011;41787;53.570;10.032;2023-04-03T11:47:05;4.20;;;1.13;;
40449;SDS011;41787;53.570;10.032;2023-04-03T14:29:13;6.93;;;0.90;;
40449;SDS011;41787;53.570;10.032;2023-04-03T15:31:12;2.95;;;1.00;;
40449;SDS011;41787;53.570;10.032;2023-04-03T15:33:47;4.65;;;0.90;;
40449;SDS011;41787;53.570;10.032;2023-04-03T15:36:15;4.45;;;0.90;;
40449;SDS011;41787;53.570;10.032;2023-04-03T15:38:42;2.10;;;0.73;;
40449;SDS011;41787;53.570;10.032;2023-04-03T15:41:08;3.28;;;0.90;;
40449;SDS011;41787;53.570;10.032;2023-04-03T15:43:40;2.20;;;1.00;;
40449;SDS011;41787;53.570;10.032;2023-04-03T15:46:06;3.15;;;0.80;;
40449;SDS011;41787;53.570;10.032;2023-04-03T15:48:32;3.13;;;0.70;;
40449;SDS011;41787;53.570;10.032;2023-04-03T15:50:58;5.75;;;1.33;;
40449;SDS011;41787;53.570;10.032;2023-04-03T15:53:25;2.28;;;0.77;;
40449;SDS011;41787;53.570;10.032;2023-04-03T15:55:51;2.60;;;0.80;;
40449;SDS011;41787;53.570;10.032;2023-04-03T15:58:17;3.25;;;1.10;;
40449;SDS011;41787;53.570;10.032;2023-04-03T16:00:43;3.15;;;0.88;;
40449;SDS011;41787;53.570;10.032;2023-04-03T16:03:10;3.05;;;1.00;;
40449;SDS011;41787;53.570;10.032;2023-04-03T16:05:37;4.60;;;1.20;;
40449;SDS011;41787;53.570;10.032;2023-04-03T16:08:03;4.05;;;1.08;;
40449;SDS011;41787;53.570;10.032;2023-04-03T16:10:33;4.30;;;1.80;;
40449;SDS011;41787;53.570;10.032;2023-04-03T16:13:00;3.72;;;1.95;;
40449;SDS011;41787;53.570;10.032;2023-04-03T16:15:26;2.88;;;1.00;;
40449;SDS011;41787;53.570;10.032;2023-04-03T16:17:52;5.43;;;1.00;;
40449;SDS011;41787;53.570;10.032;2023-04-03T16:20:18;4.25;;;1.00;;
40449;SDS011;41787;53.570;10.032;2023-04-03T16:22:46;4.60;;;0.90;;
40449;SDS011;41787;53.570;10.032;2023-04-03T16:25:13;2.53;;;1.00;;
40449;SDS011;41787;53.570;10.032;2023-04-03T16:27:48;4.20;;;1.67;;
40449;SDS011;41787;53.570;10.032;2023-04-03T16:30:14;4.00;;;0.90;;
40449;SDS011;41787;53.570;10.032;2023-04-03T16:32:40;0.90;;;0.65;;
40449;SDS011;41787;53.570;10.032;2023-04-03T16:35:06;4.53;;;1.30;;
40449;SDS011;41787;53.570;10.032;2023-04-03T16:37:35;1.00;;;0.90;;
40449;SDS011;41787;53.570;10.032;2023-04-03T16:40:01;2.70;;;0.88;;
40449;SDS011;41787;53.570;10.032;2023-04-03T16:42:28;1.05;;;0.70;;
40449;SDS011;41787;53.570;10.032;2023-04-03T16:44:54;4.95;;;0.80;;
40449;SDS011;41787;53.570;10.032;2023-04-03T16:47:48;2.15;;;1.15;;
40449;SDS011;41787;53.570;10.032;2023-04-03T16:50:35;3.30;;;1.00;;
40449;SDS011;41787;53.570;10.032;2023-04-03T16:56:03;3.15;;;0.75;;
40449;SDS011;41787;53.570;10.032;2023-04-03T16:58:38;2.00;;;1.10;;
40449;SDS011;41787;53.570;10.032;2023-04-03T17:01:15;7.72;;;1.02;;
40449;SDS011;41787;53.570;10.032;2023-04-03T17:03:41;2.97;;;1.15;;
40449;SDS011;41787;53.570;10.032;2023-04-03T17:06:07;2.90;;;1.42;;
40449;SDS011;41787;53.570;10.032;2023-04-03T17:08:41;3.05;;;1.13;;
40449;SDS011;41787;53.570;10.032;2023-04-03T17:11:07;5.07;;;1.02;;
40449;SDS011;41787;53.570;10.032;2023-04-03T17:13:34;4.57;;;1.85;;
40449;SDS011;41787;53.570;10.032;2023-04-03T17:16:00;4.93;;;1.52;;
40449;SDS011;41787;53.570;10.032;2023-04-03T17:18:27;4.45;;;1.35;;
40449;SDS011;41787;53.570;10.032;2023-04-03T17:20:55;4.18;;;0.98;;
40449;SDS011;41787;53.570;10.032;2023-04-03T17:51:20;2.80;;;1.20;;
40449;SDS011;41787;53.570;10.032;2023-04-03T18:19:25;3.05;;;1.50;;
40449;SDS011;41787;53.570;10.032;2023-04-03T18:25:29;4.60;;;1.17;;
40449;SDS011;41787;53.570;10.032;2023-04-03T18:34:43;7.47;;;1.40;;
40449;SDS011;41787;53.570;10.032;2023-04-03T18:47:20;4.35;;;1.63;;
40449;SDS011;41787;53.570;10.032;2023-04-03T19:21:18;4.35;;;1.67;;
40449;SDS011;41787;53.570;10.032;2023-04-03T19:24:08;5.18;;;1.70;;
40449;SDS011;41787;53.570;10.032;2023-04-03T19:36:27;4.00;;;2.03;;
40449;SDS011;41787;53.570;10.032;2023-04-03T19:39:14;4.43;;;1.83;;
40449;SDS011;41787;53.570;10.032;2023-04-03T19:57:21;4.45;;;1.52;;
40449;SDS011;41787;53.570;10.032;2023-04-03T20:12:56;4.30;;;2.08;;
40449;SDS011;41787;53.570;10.032;2023-04-03T20:46:59;2.08;;;1.52;;
40449;SDS011;41787;53.570;10.032;2023-04-03T20:52:55;6.90;;;1.65;;
40449;SDS011;41787;53.570;10.032;2023-04-03T21:46:32;3.67;;;1.42;;
40449;SDS011;41787;53.570;10.032;2023-04-03T22:02:07;7.72;;;2.22;;
40449;SDS011;41787;53.570;10.032;2023-04-03T22:04:33;6.10;;;2.22;;
40449;SDS011;41787;53.570;10.032;2023-04-03T22:06:59;6.63;;;1.80;;
40449;SDS011;41787;53.570;10.032;2023-04-03T22:09:27;5.70;;;2.00;;
40449;SDS011;41787;53.570;10.032;2023-04-03T22:11:53;5.07;;;1.60;;
40449;SDS011;41787;53.570;10.032;2023-04-03T22:14:19;10.55;;;2.28;;
40449;SDS011;41787;53.570;10.032;2023-04-03T22:16:45;8.30;;;1.98;;
40449;SDS011;41787;53.570;10.032;2023-04-03T22:19:11;6.88;;;1.90;;
40449;SDS011;41787;53.570;10.032;2023-04-03T22:21:38;5.75;;;1.35;;
40449;SDS011;41787;53.570;10.032;2023-04-03T22:24:05;8.50;;;1.90;;
40449;SDS011;41787;53.570;10.032;2023-04-03T22:26:31;7.60;;;2.05;;
40449;SDS011;41787;53.570;10.032;2023-04-03T22:28:57;6.28;;;1.73;;
40449;SDS011;41787;53.570;10.032;2023-04-03T22:31:22;3.85;;;2.03;;
40449;SDS011;41787;53.570;10.032;2023-04-03T22:33:48;2.35;;;1.50;;
40449;SDS011;41787;53.570;10.032;2023-04-03T22:36:14;4.43;;;1.75;;
40449;SDS011;41787;53.570;10.032;2023-04-03T22:38:40;2.45;;;1.35;;
40449;SDS011;41787;53.570;10.032;2023-04-03T22:41:10;4.60;;;1.40;;
40449;SDS011;41787;53.570;10.032;2023-04-03T22:43:36;3.03;;;0.95;;
40449;SDS011;41787;53.570;10.032;2023-04-03T22:46:03;4.03;;;1.75;;
40449;SDS011;41787;53.570;10.032;2023-04-03T22:48:30;5.60;;;1.50;;
40449;SDS011;41787;53.570;10.032;2023-04-03T22:50:57;4.82;;;1.23;;
40449;SDS011;41787;53.570;10.032;2023-04-03T22:53:24;3.17;;;1.60;;
40449;SDS011;41787;53.570;10.032;2023-04-03T22:58:20;4.13;;;1.45;;
40449;SDS011;41787;53.570;10.032;2023-04-03T23:03:15;7.53;;;1.50;;
40449;SDS011;41787;53.570;10.032;2023-04-03T23:05:41;3.50;;;1.80;;
40449;SDS011;41787;53.570;10.032;2023-04-03T23:08:07;7.85;;;1.88;;
40449;SDS011;41787;53.570;10.032;2023-04-03T23:10:33;4.43;;;2.08;;
40449;SDS011;41787;53.570;10.032;2023-04-03T23:12:59;4.60;;;1.58;;
40449;SDS011;41787;53.570;10.032;2023-04-03T23:15:25;4.20;;;1.48;;
40449;SDS011;41787;53.570;10.032;2023-04-03T23:17:51;9.02;;;1.92;;
40449;SDS011;41787;53.570;10.032;2023-04-03T23:20:17;5.65;;;1.73;;
40449;SDS011;41787;53.570;10.032;2023-04-03T23:22:43;2.55;;;1.85;;
40449;SDS011;41787;53.570;10.032;2023-04-03T23:25:09;2.65;;;1.50;;
40449;SDS011;41787;53.570;10.032;2023-04-03T23:27:36;7.00;;;1.60;;
40449;SDS011;41787;53.570;10.032;2023-04-03T23:30:02;4.57;;;1.88;;
40449;SDS011;41787;53.570;10.032;2023-04-03T23:32:28;8.40;;;1.65;;
40449;SDS011;41787;53.570;10.032;2023-04-03T23:34:54;3.85;;;1.52;;
40449;SDS011;41787;53.570;10.032;2023-04-03T23:37:20;5.82;;;2.13;;
40449;SDS011;41787;53.570;10.032;2023-04-03T23:39:46;5.00;;;2.38;;
40449;SDS011;41787;53.570;10.032;2023-04-03T23:42:12;5.20;;;2.17;;
40449;SDS011;41787;53.570;10.032;2023-04-03T23:44:38;8.25;;;0.93;;
40449;SDS011;41787;53.570;10.032;2023-04-03T23:47:04;4.88;;;2.13;;
40449;SDS011;41787;53.570;10.032;2023-04-03T23:49:30;6.85;;;1.60;;
40449;SDS011;41787;53.570;10.032;2023-04-03T23:51:56;4.68;;;1.48;;